KTUL/TUL METAR and TAF weather

Enter ICAO airport designator
Station Type Date Time Source
KTUL METAR 2018/12/11 19:53 UTC NOAA

KTUL 111953Z 19021G27KT 10SM OVC250 16/02 A3005 RMK AO2 PK WND 20027/1945 SLP175 T01560017


Station Type Date Time Source
KTUL Decoded METAR 2018/12/11 19:53 UTC NOAA

TULSA INTERNATIONAL AIRPORT, OK, United States (KTUL) 36-12N 95-53W 207M
Dec 11, 2018 - 02:53 PM EST / 2018.12.11 1953 UTC
Wind: from the S (190 degrees) at 24 MPH (21 KT) gusting to 31 MPH (27 KT):0
Visibility: 10 mile(s):0
Sky conditions: overcast
Temperature: 60.1 F (15.6 C)
Dew Point: 35.1 F (1.7 C)
Relative Humidity: 38%
Pressure (altimeter): 30.05 in. Hg (1017 hPa)
ob: KTUL 111953Z 19021G27KT 10SM OVC250 16/02 A3005 RMK AO2 PK WND 20027/1945 SLP175 T01560017
cycle: 20

Station Type Date Time Source
KTUL TAF 2018/12/11 18:33 UTC NOAA

TAF KTUL 111730Z 1118/1218 19017G25KT P6SM BKN250
FM120000 19013KT P6SM OVC200
FM120800 23006KT P6SM SCT250
FM121500 18007KT P6SM SCT250


Example: see airport list